Time;durP1;ratioP1;P1;durP2;ratioP2;P2;SDS_P1;SDS_P2;PMS_P1;PMS_P2;Temp;Humidity;BMP_temperature;BMP_pressure;BME280_temperature;BME280_humidity;BME280_pressure;Samples;Min_cycle;Max_cycle;Signal;HPM_P1;HPM_P2
2022/09/08 00:01:14;;;;;;;3.97;1.27;;;19.00;60.00;;;;;;5062349;28;20253;-84
2022/09/08 00:03:43;;;;;;;3.93;1.33;;;19.00;59.10;;;;;;5076553;28;20186;-78
2022/09/08 00:06:13;;;;;;;8.90;1.20;;;19.00;59.10;;;;;;5078601;28;20196;-78
2022/09/08 00:08:45;;;;;;;4.73;1.63;;;19.10;58.20;;;;;;5073938;28;20271;-73
2022/09/08 00:11:20;;;;;;;4.03;1.00;;;19.20;58.70;;;;;;5068841;28;20203;-75
2022/09/08 00:13:48;;;;;;;3.83;1.20;;;19.10;59.30;;;;;;5058458;28;20282;-80
2022/09/08 00:16:19;;;;;;;9.40;1.17;;;19.20;59.70;;;;;;5063616;28;20633;-76
2022/09/08 00:18:47;;;;;;;7.27;1.73;;;19.30;59.70;;;;;;5068308;28;20646;-80
2022/09/08 00:21:15;;;;;;;7.37;1.47;;;19.10;60.40;;;;;;5079531;28;20178;-75
2022/09/08 00:23:42;;;;;;;6.13;1.20;;;19.00;60.50;;;;;;5064570;28;20180;-75
2022/09/08 00:26:10;;;;;;;5.23;1.70;;;19.20;61.30;;;;;;5052511;28;20187;-79
2022/09/08 00:28:37;;;;;;;7.33;1.40;;;19.20;60.50;;;;;;5063485;28;20180;-78
2022/09/08 00:31:05;;;;;;;9.07;1.60;;;19.30;60.70;;;;;;5077458;28;20207;-79
2022/09/08 00:33:33;;;;;;;10.07;1.70;;;19.10;59.30;;;;;;5055813;28;20231;-77
2022/09/08 00:36:03;;;;;;;10.80;1.47;;;19.20;59.20;;;;;;5054777;28;20279;-80
2022/09/08 00:38:32;;;;;;;6.20;1.37;;;19.20;59.30;;;;;;5064202;28;20646;-76
2022/09/08 00:41:00;;;;;;;4.17;1.10;;;19.10;60.30;;;;;;5063519;28;20689;-78
2022/09/08 00:43:38;;;;;;;10.13;1.60;;;19.10;60.00;;;;;;5063728;28;20682;-81
2022/09/08 00:46:17;;;;;;;6.10;1.57;;;18.90;60.80;;;;;;5069807;28;20179;-81
2022/09/08 00:48:52;;;;;;;6.37;1.67;;;18.90;61.90;;;;;;5069859;28;20274;-78
2022/09/08 00:51:21;;;;;;;8.20;1.37;;;19.20;61.90;;;;;;5062410;28;20544;-76
2022/09/08 00:53:49;;;;;;;8.37;1.27;;;19.10;62.10;;;;;;5066520;28;20188;-76
2022/09/08 00:56:17;;;;;;;5.00;1.30;;;19.40;62.20;;;;;;5070718;28;20665;-76
2022/09/08 00:58:45;;;;;;;11.07;1.43;;;19.20;62.20;;;;;;5069429;28;20187;-84
2022/09/08 01:01:12;;;;;;;4.73;1.50;;;19.20;62.70;;;;;;5065928;28;20187;-82
2022/09/08 01:03:42;;;;;;;11.03;1.63;;;19.10;61.20;;;;;;5068363;28;20210;-83
2022/09/08 01:12:43;;;;;;;5.07;1.40;;;19.30;61.70;;;;;;5074910;28;20560;-77
2022/09/08 01:12:44;;;;;;;4.83;1.40;;;19.80;61.00;;;;;;5065707;28;20238;-78
2022/09/08 01:15:27;;;;;;;5.30;1.23;;;20.00;59.10;;;;;;5073438;28;20224;-82
2022/09/08 01:17:56;;;;;;;5.37;1.20;;;20.10;59.00;;;;;;5063385;28;20582;-80
2022/09/08 01:20:35;;;;;;;8.70;1.53;;;20.30;57.30;;;;;;5067993;28;20171;-79
2022/09/08 01:23:27;;;;;;;4.03;1.57;;;20.10;57.30;;;;;;5071144;28;20183;-76
2022/09/08 01:26:12;;;;;;;3.93;1.53;;;20.20;58.20;;;;;;5069713;28;20646;-74
2022/09/08 01:29:03;;;;;;;9.30;1.23;;;20.30;56.80;;;;;;5065902;28;20224;-82
2022/09/08 01:31:36;;;;;;;6.67;1.40;;;20.60;56.60;;;;;;5067623;28;20251;-82
2022/09/08 01:34:04;;;;;;;9.17;1.87;;;20.50;55.90;;;;;;5070649;28;20220;-77
2022/09/08 01:36:31;;;;;;;9.73;1.50;;;20.60;56.80;;;;;;5070957;28;20171;-74
2022/09/08 01:38:59;;;;;;;7.20;1.80;;;20.70;56.70;;;;;;5071162;28;20191;-80
2022/09/08 01:41:26;;;;;;;8.67;1.93;;;20.70;56.70;;;;;;5070341;28;20218;-77
2022/09/08 01:43:54;;;;;;;4.40;1.40;;;20.70;57.00;;;;;;5070414;28;20676;-79
2022/09/08 01:46:21;;;;;;;4.77;1.30;;;20.80;57.50;;;;;;5069784;28;20183;-81
2022/09/08 01:48:49;;;;;;;6.37;1.87;;;20.80;57.70;;;;;;5072779;28;20179;-77
2022/09/08 01:51:16;;;;;;;9.23;2.07;;;20.60;58.30;;;;;;5069693;28;20673;-79
2022/09/08 01:53:43;;;;;;;7.63;1.90;;;20.60;58.20;;;;;;5071746;28;20278;-83
2022/09/08 01:56:11;;;;;;;10.80;1.90;;;20.70;58.40;;;;;;5072119;28;20178;-76
2022/09/08 01:58:38;;;;;;;8.63;1.90;;;20.70;58.20;;;;;;5069415;28;20182;-76
2022/09/08 02:01:06;;;;;;;8.00;1.93;;;20.70;58.40;;;;;;5071658;28;20209;-79
2022/09/08 02:03:34;;;;;;;10.17;1.80;;;20.70;58.20;;;;;;5070984;28;20194;-79
2022/09/08 02:06:02;;;;;;;8.73;2.10;;;20.80;58.40;;;;;;5070236;28;20187;-82
2022/09/08 02:08:31;;;;;;;9.80;2.40;;;21.00;57.90;;;;;;5070228;28;20213;-81
2022/09/08 02:10:59;;;;;;;8.07;1.83;;;20.90;58.00;;;;;;5070520;28;20191;-76
2022/09/08 02:13:28;;;;;;;7.03;2.00;;;21.00;58.50;;;;;;5071275;28;20182;-80
2022/09/08 02:16:09;;;;;;;10.20;2.13;;;21.00;57.60;;;;;;5068012;28;20171;-79
2022/09/08 02:18:36;;;;;;;14.90;2.30;;;20.90;58.70;;;;;;5066931;28;20646;-77
2022/09/08 02:21:12;;;;;;;6.03;1.60;;;21.20;58.30;;;;;;5071407;28;20182;-81
2022/09/08 02:23:42;;;;;;;7.47;1.70;;;21.10;57.60;;;;;;5066137;28;20629;-80
2022/09/08 02:26:19;;;;;;;6.80;2.00;;;21.00;57.90;;;;;;5056444;28;20535;-82
2022/09/08 02:28:47;;;;;;;6.37;1.80;;;21.30;56.20;;;;;;5052968;28;20168;-79
2022/09/08 02:31:15;;;;;;;6.30;1.53;;;21.30;55.90;;;;;;5063252;28;20682;-81
2022/09/08 02:33:42;;;;;;;7.43;1.73;;;21.30;56.00;;;;;;5052380;28;20192;-82
2022/09/08 02:36:10;;;;;;;5.73;1.73;;;21.60;56.10;;;;;;5062288;28;20193;-80
2022/09/08 02:38:38;;;;;;;9.73;1.77;;;21.60;55.70;;;;;;5060544;28;20175;-80
2022/09/08 02:41:06;;;;;;;8.33;2.10;;;21.80;55.70;;;;;;5050658;28;20586;-79
2022/09/08 02:43:35;;;;;;;12.13;2.33;;;22.00;55.70;;;;;;5054830;28;20184;-73
2022/09/08 02:46:09;;;;;;;9.23;2.40;;;21.70;55.70;;;;;;5053179;28;20594;-81
2022/09/08 02:48:37;;;;;;;8.23;2.07;;;21.60;55.40;;;;;;5056869;28;20206;-77
2022/09/08 02:51:13;;;;;;;10.90;2.20;;;21.70;55.30;;;;;;5060514;28;20204;-81
2022/09/08 02:53:41;;;;;;;9.37;1.37;;;21.80;55.10;;;;;;5071396;28;20273;-80
2022/09/08 02:56:11;;;;;;;12.97;1.80;;;21.70;55.50;;;;;;5071569;28;20258;-78
2022/09/08 02:58:38;;;;;;;11.60;1.70;;;21.40;56.20;;;;;;5057557;28;20622;-79
2022/09/08 03:01:06;;;;;;;6.87;1.67;;;21.30;56.40;;;;;;5059440;28;20663;-78
2022/09/08 03:03:33;;;;;;;6.80;2.03;;;21.30;56.10;;;;;;5056659;28;20674;-75
2022/09/08 03:06:01;;;;;;;8.93;1.53;;;21.30;55.60;;;;;;5068423;28;20220;-85
2022/09/08 03:08:30;;;;;;;8.23;1.70;;;21.10;55.90;;;;;;5068434;28;20167;-78
2022/09/08 03:10:57;;;;;;;7.47;1.83;;;21.40;55.90;;;;;;5056434;28;20236;-82
2022/09/08 03:13:25;;;;;;;7.33;1.70;;;21.80;55.00;;;;;;5056758;28;20175;-84
2022/09/08 03:15:52;;;;;;;7.53;1.60;;;21.80;54.70;;;;;;5062890;28;20226;-79
2022/09/08 03:18:20;;;;;;;7.10;1.50;;;22.00;53.50;;;;;;5073016;28;20179;-83
2022/09/08 03:20:48;;;;;;;6.57;1.27;;;22.00;53.50;;;;;;5076307;28;20183;-81
2022/09/08 03:23:21;;;;;;;11.53;2.07;;;21.80;54.20;;;;;;5076192;28;20183;-83
2022/09/08 03:25:50;;;;;;;5.53;1.40;;;21.80;53.90;;;;;;5076516;28;20526;-79
2022/09/08 03:28:25;;;;;;;8.37;1.33;;;21.50;54.80;;;;;;5075621;28;20262;-82
2022/09/08 03:30:52;;;;;;;9.33;2.00;;;21.70;54.50;;;;;;5060088;28;20186;-82
2022/09/08 03:33:20;;;;;;;12.93;1.67;;;21.80;54.30;;;;;;5057954;28;20187;-84
2022/09/08 03:35:47;;;;;;;7.50;1.70;;;21.60;53.70;;;;;;5076226;28;20634;-77
2022/09/08 03:38:17;;;;;;;9.70;1.60;;;21.80;53.70;;;;;;5071700;28;20183;-84
2022/09/08 03:40:45;;;;;;;6.20;1.50;;;21.80;54.50;;;;;;5075157;28;20222;-78
2022/09/08 03:43:12;;;;;;;7.07;1.53;;;21.60;53.50;;;;;;5063961;28;20190;-84
2022/09/08 03:45:46;;;;;;;9.70;1.57;;;21.10;54.90;;;;;;5056290;28;20172;-86
2022/09/08 03:48:15;;;;;;;5.20;1.40;;;21.10;55.20;;;;;;5055796;28;20233;-84
2022/09/08 03:50:46;;;;;;;14.77;1.97;;;21.00;55.20;;;;;;5056157;28;20172;-84
2022/09/08 03:53:14;;;;;;;11.33;1.90;;;20.80;56.60;;;;;;5055513;28;20188;-81
2022/09/08 03:55:42;;;;;;;8.37;2.03;;;20.30;57.40;;;;;;5056301;28;20176;-75
2022/09/08 03:58:11;;;;;;;7.97;1.57;;;20.50;58.20;;;;;;5058904;28;20272;-74
2022/09/08 04:00:42;;;;;;;13.13;2.23;;;20.40;58.60;;;;;;5060504;28;20263;-79
2022/09/08 04:03:10;;;;;;;11.67;2.43;;;20.30;59.50;;;;;;5065399;28;20187;-84
2022/09/08 04:05:39;;;;;;;11.20;2.50;;;20.50;60.00;;;;;;5056767;28;20187;-77
2022/09/08 04:08:07;;;;;;;9.27;2.00;;;20.30;60.40;;;;;;5055827;28;20172;-75
2022/09/08 04:10:34;;;;;;;10.53;2.40;;;20.30;60.30;;;;;;5061857;28;20187;-79
2022/09/08 04:13:02;;;;;;;10.17;1.80;;;20.00;60.60;;;;;;5060962;28;20632;-77
2022/09/08 04:15:29;;;;;;;9.40;1.83;;;20.10;60.10;;;;;;5059257;28;20199;-78
2022/09/08 04:17:57;;;;;;;10.60;2.37;;;20.20;59.60;;;;;;5055723;28;20188;-77
2022/09/08 04:20:24;;;;;;;5.97;1.93;;;20.20;59.20;;;;;;5055142;28;20179;-76
2022/09/08 04:22:52;;;;;;;11.73;2.23;;;20.30;58.70;;;;;;5062320;28;20194;-80
2022/09/08 04:25:19;;;;;;;18.60;2.50;;;20.30;58.30;;;;;;5062174;28;20187;-79
2022/09/08 04:27:46;;;;;;;9.77;2.77;;;20.30;58.40;;;;;;5061424;28;20183;-79
2022/09/08 04:30:14;;;;;;;9.13;2.17;;;20.40;58.90;;;;;;5066896;28;20180;-81
2022/09/08 04:32:42;;;;;;;9.13;1.80;;;20.40;59.20;;;;;;5056164;28;20934;-83
2022/09/08 04:35:09;;;;;;;7.50;1.77;;;20.50;57.30;;;;;;5074486;28;20171;-78
2022/09/08 04:37:38;;;;;;;12.37;2.77;;;20.40;57.40;;;;;;5060361;28;20171;-79
2022/09/08 04:40:09;;;;;;;15.57;2.37;;;20.20;58.20;;;;;;5070268;28;20171;-84
2022/09/08 04:42:37;;;;;;;8.20;2.07;;;20.40;57.40;;;;;;5065662;28;20223;-79
2022/09/08 04:45:05;;;;;;;8.33;1.83;;;20.50;57.20;;;;;;5068604;28;20283;-79
2022/09/08 04:47:34;;;;;;;8.30;2.20;;;20.80;56.60;;;;;;5066558;28;20660;-79
2022/09/08 04:50:01;;;;;;;8.07;2.20;;;20.80;56.80;;;;;;5058612;28;20183;-78
2022/09/08 04:52:28;;;;;;;7.47;2.23;;;21.20;56.80;;;;;;5065837;28;20314;-81
2022/09/08 04:54:56;;;;;;;12.73;2.17;;;21.70;55.00;;;;;;5063792;28;20304;-85
2022/09/08 04:57:23;;;;;;;11.47;1.80;;;22.30;53.90;;;;;;5069790;28;20646;-83
2022/09/08 04:59:51;;;;;;;8.50;1.77;;;22.30;52.50;;;;;;5070767;28;20173;-77
2022/09/08 05:02:18;;;;;;;8.07;1.77;;;22.00;53.30;;;;;;5068142;28;20710;-79
2022/09/08 05:04:46;;;;;;;7.73;2.07;;;22.10;53.90;;;;;;5069828;28;20210;-78
2022/09/08 05:07:13;;;;;;;13.03;2.60;;;22.10;54.00;;;;;;5064382;28;20179;-81
2022/09/08 05:09:43;;;;;;;11.63;1.97;;;22.00;54.50;;;;;;5070661;28;20183;-80
2022/09/08 05:12:10;;;;;;;9.10;2.17;;;21.30;56.20;;;;;;5071216;28;20203;-81
2022/09/08 05:14:38;;;;;;;10.97;2.10;;;21.30;57.20;;;;;;5070406;28;20175;-83
2022/09/08 05:17:05;;;;;;;11.60;2.20;;;21.70;56.50;;;;;;5068911;28;20191;-81
2022/09/08 05:19:35;;;;;;;11.00;1.97;;;21.30;56.40;;;;;;5072778;28;20183;-78
2022/09/08 05:22:03;;;;;;;8.53;2.00;;;21.30;57.30;;;;;;5067143;28;20258;-83
2022/09/08 05:24:31;;;;;;;8.80;2.37;;;21.00;59.30;;;;;;5067729;28;20183;-82
2022/09/08 05:26:59;;;;;;;10.70;2.37;;;20.90;60.10;;;;;;5067234;28;20187;-84
2022/09/08 05:29:26;;;;;;;10.23;1.97;;;21.10;59.50;;;;;;5072402;28;20181;-81
2022/09/08 05:31:54;;;;;;;13.83;2.17;;;21.30;59.10;;;;;;5070363;28;20669;-78
2022/09/08 05:34:21;;;;;;;7.83;1.83;;;21.20;58.90;;;;;;5071389;28;20183;-81
2022/09/08 05:36:49;;;;;;;10.63;2.47;;;21.20;58.50;;;;;;5075120;28;20191;-84
2022/09/08 05:39:16;;;;;;;8.07;2.40;;;21.30;58.60;;;;;;5069806;28;20576;-84
2022/09/08 05:41:43;;;;;;;11.60;2.13;;;21.80;57.40;;;;;;5071544;28;20585;-78
2022/09/08 05:44:14;;;;;;;13.53;7.00;;;21.90;57.90;;;;;;5066625;28;20582;-79
2022/09/08 05:46:43;;;;;;;10.47;3.53;;;22.20;57.00;;;;;;5067386;28;20629;-75
2022/09/08 05:49:10;;;;;;;12.33;2.70;;;21.90;57.20;;;;;;5055941;28;20614;-80
2022/09/08 05:51:37;;;;;;;11.27;4.00;;;21.50;59.30;;;;;;5071996;28;20290;-76
2022/09/08 05:54:05;;;;;;;10.80;4.20;;;21.10;60.90;;;;;;5091396;28;20274;-83
2022/09/08 05:56:33;;;;;;;12.00;2.67;;;20.60;62.80;;;;;;5064663;28;20249;-88
2022/09/08 05:59:00;;;;;;;12.90;2.80;;;20.30;64.40;;;;;;5053219;28;20283;-79
2022/09/08 06:01:30;;;;;;;7.87;2.40;;;20.10;65.50;;;;;;5058426;28;20230;-81
2022/09/08 06:04:01;;;;;;;11.33;2.10;;;19.80;66.80;;;;;;5064098;28;20237;-80
2022/09/08 06:06:29;;;;;;;8.57;2.47;;;19.70;66.90;;;;;;5055322;28;20202;-81
2022/09/08 06:09:00;;;;;;;14.03;2.73;;;19.30;68.10;;;;;;5059551;28;20179;-77
2022/09/08 06:11:30;;;;;;;10.83;2.80;;;19.30;67.80;;;;;;5058469;28;20234;-82
2022/09/08 06:13:58;;;;;;;13.00;2.40;;;19.50;67.70;;;;;;5070587;28;20183;-80
2022/09/08 06:16:26;;;;;;;19.60;2.67;;;19.40;67.70;;;;;;5069936;28;20194;-80
2022/09/08 06:18:53;;;;;;;11.83;2.30;;;19.20;68.30;;;;;;5065075;28;20179;-79
2022/09/08 06:21:24;;;;;;;10.10;2.47;;;19.00;68.70;;;;;;5067185;28;20180;-75
2022/09/08 06:23:54;;;;;;;10.63;2.37;;;19.00;69.20;;;;;;5057786;28;20176;-80
2022/09/08 06:26:42;;;;;;;14.07;2.00;;;18.80;69.60;;;;;;5065152;28;20175;-77
2022/09/08 06:29:16;;;;;;;12.43;2.30;;;18.80;69.70;;;;;;5068646;28;20203;-75
2022/09/08 06:32:15;;;;;;;9.93;2.80;;;18.70;70.00;;;;;;5061215;28;20198;-74
2022/09/08 06:34:51;;;;;;;15.17;2.43;;;18.70;70.00;;;;;;5055996;28;20206;-81
2022/09/08 06:37:39;;;;;;;8.83;2.27;;;18.50;69.70;;;;;;5053516;28;20184;-81
2022/09/08 06:40:28;;;;;;;10.20;2.27;;;18.50;69.90;;;;;;5051952;28;20203;-76
2022/09/08 06:42:55;;;;;;;7.23;1.90;;;18.40;69.60;;;;;;5073158;28;20565;-84
2022/09/08 06:45:27;;;;;;;13.03;2.23;;;18.50;68.50;;;;;;5070849;28;20193;-79
2022/09/08 06:48:21;;;;;;;12.03;2.63;;;18.70;68.00;;;;;;5063581;28;20178;-79
2022/09/08 06:51:22;;;;;;;13.70;2.80;;;19.00;65.40;;;;;;5063797;28;20266;-78
2022/09/08 06:53:58;;;;;;;18.07;3.23;;;19.10;64.80;;;;;;5070407;28;20273;-81
2022/09/08 06:56:44;;;;;;;14.30;2.90;;;19.10;65.10;;;;;;5052738;28;20524;-77
2022/09/08 06:59:32;;;;;;;16.70;4.17;;;18.90;66.40;;;;;;5052627;28;20171;-82
2022/09/08 07:02:02;;;;;;;10.43;2.40;;;18.80;67.20;;;;;;5071418;28;20282;-79
2022/09/08 07:04:41;;;;;;;15.00;3.57;;;18.50;68.30;;;;;;5053723;28;20196;-80
2022/09/08 07:07:37;;;;;;;17.27;3.23;;;18.30;69.30;;;;;;5061539;28;20219;-79
2022/09/08 07:10:04;;;;;;;15.00;2.77;;;18.30;70.20;;;;;;5052216;28;20527;-82
2022/09/08 07:12:38;;;;;;;18.10;2.90;;;18.20;70.70;;;;;;5065279;28;20688;-81
2022/09/08 07:15:26;;;;;;;18.20;3.03;;;18.10;71.20;;;;;;5079727;28;20216;-75
2022/09/08 07:18:24;;;;;;;15.10;2.83;;;18.10;71.50;;;;;;5075354;28;20189;-81
2022/09/08 07:21:29;;;;;;;13.90;3.17;;;18.10;71.90;;;;;;5074466;28;20218;-79
2022/09/08 07:23:59;;;;;;;12.03;2.53;;;18.00;72.00;;;;;;5073500;28;20193;-79
2022/09/08 07:26:38;;;;;;;10.93;2.70;;;18.00;72.20;;;;;;5069814;28;20178;-75
2022/09/08 07:29:20;;;;;;;15.43;3.33;;;18.00;72.70;;;;;;5062713;28;20533;-79
2022/09/08 07:31:50;;;;;;;16.43;2.80;;;17.90;73.10;;;;;;5067226;28;20298;-80
2022/09/08 07:34:23;;;;;;;13.93;2.83;;;17.90;73.20;;;;;;5062977;28;20268;-82
2022/09/08 07:37:02;;;;;;;11.83;2.70;;;17.80;73.60;;;;;;5059730;28;20259;-76
2022/09/08 07:39:52;;;;;;;15.40;3.27;;;17.80;74.00;;;;;;5054885;28;20514;-84
2022/09/08 07:42:20;;;;;;;13.07;3.10;;;17.80;74.30;;;;;;5052095;28;20235;-83
2022/09/08 07:44:54;;;;;;;14.37;2.57;;;17.80;74.80;;;;;;5055388;28;20744;-80
2022/09/08 07:47:39;;;;;;;17.33;3.37;;;17.70;75.10;;;;;;5064304;28;20175;-75
2022/09/08 07:50:21;;;;;;;13.67;3.17;;;17.70;75.50;;;;;;5054852;28;20179;-77
2022/09/08 07:53:08;;;;;;;18.17;3.67;;;17.60;76.00;;;;;;5062897;28;20609;-80
2022/09/08 07:55:42;;;;;;;20.90;3.57;;;17.60;75.90;;;;;;5062898;28;20280;-77
2022/09/08 07:58:21;;;;;;;20.07;3.63;;;17.60;76.10;;;;;;5071951;28;20182;-76
2022/09/08 08:00:53;;;;;;;19.87;3.43;;;17.60;76.10;;;;;;5074593;28;20178;-82
2022/09/08 08:03:44;;;;;;;17.83;3.27;;;17.60;76.30;;;;;;5074638;28;20634;-76
2022/09/08 08:06:32;;;;;;;20.33;3.00;;;17.60;76.10;;;;;;5092842;28;20234;-82
2022/09/08 08:09:29;;;;;;;17.63;3.00;;;17.60;76.10;;;;;;5069102;28;20213;-80
2022/09/08 08:12:02;;;;;;;19.77;3.33;;;17.50;76.20;;;;;;5079062;28;20215;-85
2022/09/08 08:15:03;;;;;;;20.17;4.60;;;17.60;75.80;;;;;;5060465;28;20716;-83
2022/09/08 08:17:47;;;;;;;21.33;4.00;;;17.60;76.20;;;;;;5059804;28;20202;-79
2022/09/08 08:20:27;;;;;;;19.87;3.73;;;17.50;76.30;;;;;;5075103;28;20273;-77
2022/09/08 08:23:00;;;;;;;17.83;3.23;;;17.50;76.60;;;;;;5062362;28;20186;-79
2022/09/08 08:25:38;;;;;;;19.27;3.60;;;17.50;76.40;;;;;;5059386;28;20211;-78
2022/09/08 08:28:08;;;;;;;22.70;4.00;;;17.50;76.50;;;;;;5056899;28;20232;-77
2022/09/08 08:30:42;;;;;;;19.53;4.10;;;17.50;76.20;;;;;;5065059;28;20171;-79
2022/09/08 08:33:14;;;;;;;19.93;3.93;;;17.50;76.30;;;;;;5057358;28;20231;-77
2022/09/08 08:35:48;;;;;;;16.67;3.37;;;17.50;76.10;;;;;;5068671;28;20182;-76
2022/09/08 08:38:23;;;;;;;17.57;3.40;;;17.50;76.00;;;;;;5068826;28;20182;-76
2022/09/08 08:40:56;;;;;;;20.47;4.57;;;17.60;75.90;;;;;;5068964;28;20246;-75
2022/09/08 08:43:26;;;;;;;23.13;3.97;;;17.50;76.00;;;;;;5065962;28;20218;-78
2022/09/08 08:46:21;;;;;;;18.97;3.13;;;17.50;76.30;;;;;;5072679;28;20216;-82
2022/09/08 08:49:16;;;;;;;17.40;4.07;;;17.50;76.50;;;;;;5068490;28;20533;-76
2022/09/08 08:52:15;;;;;;;21.57;3.90;;;17.50;76.50;;;;;;5053171;28;20217;-76
2022/09/08 08:55:19;;;;;;;23.00;4.00;;;17.50;76.80;;;;;;5055250;28;20674;-78
2022/09/08 08:58:04;;;;;;;14.07;3.30;;;17.50;76.70;;;;;;5053098;28;20202;-75
2022/09/08 09:00:57;;;;;;;23.43;4.53;;;17.50;76.80;;;;;;5055041;28;20180;-77
2022/09/08 09:03:49;;;;;;;15.47;3.50;;;17.40;76.70;;;;;;5054144;28;20194;-75
2022/09/08 09:06:46;;;;;;;21.90;4.27;;;17.50;75.80;;;;;;5054584;28;20591;-78
2022/09/08 09:09:36;;;;;;;25.57;4.67;;;17.50;75.70;;;;;;5063125;28;20700;-78
2022/09/08 09:12:25;;;;;;;22.30;3.97;;;17.50;75.80;;;;;;5050949;28;20802;-76
2022/09/08 09:15:21;;;;;;;17.40;2.93;;;17.50;76.10;;;;;;5054460;28;20186;-78
2022/09/08 09:17:54;;;;;;;18.80;3.30;;;17.50;76.20;;;;;;5053323;28;20218;-76
2022/09/08 09:20:39;;;;;;;17.87;4.17;;;17.60;76.40;;;;;;5053709;28;20540;-80
2022/09/08 09:23:34;;;;;;;26.60;4.40;;;17.60;76.70;;;;;;5054168;28;20190;-79
2022/09/08 09:26:19;;;;;;;18.87;3.53;;;17.60;76.90;;;;;;5053843;28;20189;-78
2022/09/08 09:28:57;;;;;;;17.97;4.10;;;17.60;77.20;;;;;;5056861;28;20176;-84
2022/09/08 09:31:40;;;;;;;16.87;3.30;;;17.60;77.30;;;;;;5071398;28;20550;-76
2022/09/08 09:34:26;;;;;;;17.03;3.63;;;17.60;77.60;;;;;;5067821;28;20539;-82
2022/09/08 09:37:15;;;;;;;19.23;4.67;;;17.60;77.70;;;;;;5055398;28;20202;-83
2022/09/08 09:40:06;;;;;;;20.67;3.57;;;17.60;77.90;;;;;;5063732;28;20187;-77
2022/09/08 09:42:58;;;;;;;23.77;4.17;;;17.60;78.10;;;;;;5073822;28;20376;-78
2022/09/08 09:45:25;;;;;;;19.27;4.03;;;17.60;78.10;;;;;;5066970;28;20183;-74
2022/09/08 09:48:17;;;;;;;21.77;3.77;;;17.60;77.90;;;;;;5053350;28;20187;-76
2022/09/08 09:51:03;;;;;;;24.10;4.53;;;17.60;78.00;;;;;;5064422;28;20316;-81
2022/09/08 09:53:48;;;;;;;23.47;3.70;;;17.60;77.90;;;;;;5054581;28;20740;-80
2022/09/08 09:56:59;;;;;;;17.30;3.33;;;17.60;77.60;;;;;;5063701;28;20180;-76
2022/09/08 09:59:58;;;;;;;18.80;3.40;;;17.60;77.80;;;;;;5006217;28;20279;-75
2022/09/08 10:02:34;;;;;;;21.87;3.50;;;17.60;77.70;;;;;;5010690;28;20336;-78
2022/09/08 10:05:35;;;;;;;19.23;3.53;;;17.60;78.00;;;;;;5058217;28;20527;-78
2022/09/08 10:08:28;;;;;;;23.93;3.83;;;17.60;77.40;;;;;;5057260;28;20191;-78
2022/09/08 10:11:10;;;;;;;24.63;3.70;;;17.60;77.60;;;;;;5062727;28;20212;-76
2022/09/08 10:13:55;;;;;;;14.23;2.80;;;17.60;77.60;;;;;;5069951;28;20188;-77
2022/09/08 10:16:51;;;;;;;20.20;4.00;;;17.60;77.80;;;;;;5068184;28;20183;-80
2022/09/08 10:19:46;;;;;;;19.03;3.23;;;17.60;77.80;;;;;;5065740;28;20535;-77
2022/09/08 10:22:47;;;;;;;15.63;3.30;;;17.60;77.90;;;;;;5070412;28;20178;-79
2022/09/08 10:25:34;;;;;;;12.57;3.20;;;17.60;78.00;;;;;;5067718;28;20180;-76
2022/09/08 10:28:39;;;;;;;12.60;3.23;;;17.60;78.10;;;;;;5067256;28;20175;-79
2022/09/08 10:31:36;;;;;;;17.57;3.63;;;17.50;78.20;;;;;;5081799;28;20189;-76
2022/09/08 10:34:17;;;;;;;29.33;4.20;;;17.50;78.20;;;;;;5069105;28;20191;-82
2022/09/08 10:37:05;;;;;;;17.10;3.23;;;17.50;78.20;;;;;;5062618;28;20232;-76
2022/09/08 10:40:26;;;;;;;22.60;3.60;;;17.50;78.20;;;;;;5062491;28;20175;-80
2022/09/08 10:43:01;;;;;;;17.90;3.60;;;17.50;77.90;;;;;;5013186;28;20208;-79
2022/09/08 10:45:40;;;;;;;12.93;2.63;;;17.50;77.40;;;;;;5069279;28;20185;-79
2022/09/08 10:48:34;;;;;;;11.40;2.63;;;17.50;77.30;;;;;;5066063;28;20175;-78
2022/09/08 10:51:36;;;;;;;18.10;3.67;;;17.50;77.40;;;;;;5055861;28;20243;-78
2022/09/08 10:54:24;;;;;;;17.70;3.00;;;17.50;77.30;;;;;;5073414;28;20196;-79
2022/09/08 10:56:55;;;;;;;18.53;3.87;;;17.50;77.50;;;;;;5052444;28;20172;-77
2022/09/08 11:00:07;;;;;;;12.47;2.67;;;17.50;77.60;;;;;;5072019;28;20328;-78
2022/09/08 11:02:35;;;;;;;16.30;3.23;;;17.50;78.20;;;;;;5067758;28;20657;-79
2022/09/08 11:05:40;;;;;;;10.90;2.60;;;17.40;78.70;;;;;;5062695;28;20183;-83
2022/09/08 11:08:46;;;;;;;17.20;3.13;;;17.40;78.90;;;;;;5058769;28;20285;-77
2022/09/08 11:11:25;;;;;;;19.40;3.67;;;17.30;79.50;;;;;;5048255;28;20218;-78
2022/09/08 11:14:16;;;;;;;20.90;3.17;;;17.30;80.00;;;;;;5050882;28;20230;-85
2022/09/08 11:17:03;;;;;;;14.13;3.17;;;17.30;80.40;;;;;;5052430;28;20197;-81
2022/09/08 11:19:41;;;;;;;16.87;2.73;;;17.20;79.80;;;;;;5054424;28;20194;-78
2022/09/08 11:22:33;;;;;;;19.00;3.10;;;17.30;79.60;;;;;;5088021;28;20206;-84
2022/09/08 11:25:32;;;;;;;15.30;3.13;;;17.20;79.40;;;;;;5077991;28;20182;-80
2022/09/08 11:28:28;;;;;;;19.50;3.07;;;17.30;78.60;;;;;;5081598;28;20645;-77
2022/09/08 11:31:23;;;;;;;14.30;3.17;;;17.30;78.40;;;;;;5055520;28;20267;-83
2022/09/08 11:34:02;;;;;;;13.20;2.80;;;17.30;78.60;;;;;;5075701;28;20215;-80
2022/09/08 11:37:00;;;;;;;13.33;2.63;;;17.30;78.40;;;;;;5070763;28;20225;-79
2022/09/08 11:39:34;;;;;;;10.80;2.30;;;17.30;78.10;;;;;;5081836;28;20179;-81
2022/09/08 11:42:30;;;;;;;19.10;3.10;;;17.30;77.90;;;;;;5064172;28;20244;-77
2022/09/08 11:45:10;;;;;;;15.77;3.70;;;17.30;77.80;;;;;;5072654;28;20179;-76
2022/09/08 11:47:56;;;;;;;13.70;3.00;;;17.30;77.80;;;;;;5068217;28;20179;-77
2022/09/08 11:50:45;;;;;;;12.93;2.40;;;17.30;77.90;;;;;;5063548;28;20240;-81
2022/09/08 11:53:32;;;;;;;16.97;3.00;;;17.30;77.90;;;;;;5070547;28;20290;-79
2022/09/08 11:56:11;;;;;;;15.20;3.67;;;17.30;78.10;;;;;;5063671;28;20262;-82
2022/09/08 11:59:22;;;;;;;18.07;3.27;;;17.30;78.20;;;;;;5071938;28;20229;-79
2022/09/08 12:02:16;;;;;;;16.43;2.70;;;17.30;78.40;;;;;;5056741;28;20192;-81
2022/09/08 12:05:01;;;;;;;13.20;2.97;;;17.20;78.30;;;;;;5074324;28;20557;-81
2022/09/08 12:08:05;;;;;;;16.47;3.03;;;17.20;78.60;;;;;;5078327;28;20268;-78
2022/09/08 12:10:41;;;;;;;12.40;2.80;;;17.20;79.40;;;;;;5084021;28;20244;-80
2022/09/08 12:13:37;;;;;;;14.03;2.83;;;17.10;79.30;;;;;;5067083;28;20242;-76
2022/09/08 12:16:28;;;;;;;16.77;3.43;;;17.10;79.60;;;;;;5046692;28;20227;-78
2022/09/08 12:19:03;;;;;;;9.83;2.77;;;17.00;79.80;;;;;;5054206;28;20177;-79
2022/09/08 12:21:54;;;;;;;22.73;3.17;;;17.00;80.30;;;;;;5063136;28;20243;-75
2022/09/08 12:24:46;;;;;;;9.23;2.03;;;17.00;80.20;;;;;;5065291;28;20178;-81
2022/09/08 12:27:16;;;;;;;12.57;2.97;;;16.90;80.30;;;;;;5060894;28;20189;-73
2022/09/08 12:30:16;;;;;;;18.87;2.90;;;16.80;80.50;;;;;;5066816;28;20215;-77
2022/09/08 12:33:20;;;;;;;14.07;2.77;;;16.80;80.90;;;;;;5056963;28;20539;-82
2022/09/08 12:35:56;;;;;;;16.07;3.23;;;16.80;80.90;;;;;;5054120;28;20276;-85
2022/09/08 12:38:45;;;;;;;12.80;2.70;;;16.70;81.10;;;;;;5062243;28;20191;-80
2022/09/08 12:41:33;;;;;;;13.27;2.70;;;16.70;81.20;;;;;;5068269;28;20707;-77
2022/09/08 12:44:13;;;;;;;12.67;2.30;;;16.70;81.20;;;;;;5069704;28;20644;-82
2022/09/08 12:46:49;;;;;;;13.73;3.27;;;16.70;81.30;;;;;;5055885;28;20175;-77
2022/09/08 12:49:22;;;;;;;12.17;3.07;;;16.60;81.50;;;;;;5054881;28;20211;-79
2022/09/08 12:51:59;;;;;;;16.97;2.93;;;16.60;81.30;;;;;;5054353;28;20220;-80
2022/09/08 12:54:50;;;;;;;14.23;2.80;;;16.60;81.40;;;;;;5060744;28;20172;-85
2022/09/08 12:57:44;;;;;;;9.50;2.57;;;16.60;81.30;;;;;;5054596;28;20186;-86
2022/09/08 13:00:19;;;;;;;9.97;2.17;;;16.50;81.20;;;;;;5054822;28;20177;-83
2022/09/08 13:03:08;;;;;;;18.93;3.37;;;16.50;80.90;;;;;;5054820;28;20217;-79
2022/09/08 13:05:41;;;;;;;13.47;3.57;;;16.50;80.70;;;;;;5069711;28;20667;-76
2022/09/08 13:08:32;;;;;;;13.87;3.10;;;16.60;80.80;;;;;;5064596;28;20182;-80
2022/09/08 13:11:35;;;;;;;16.33;2.57;;;16.50;80.80;;;;;;5061847;28;20182;-82
2022/09/08 13:14:10;;;;;;;15.03;2.40;;;16.50;80.80;;;;;;5047120;28;20229;-82
2022/09/08 13:17:01;;;;;;;9.63;2.50;;;16.50;80.90;;;;;;5057825;28;20182;-81
2022/09/08 13:19:31;;;;;;;13.10;2.73;;;16.50;81.10;;;;;;5053916;28;20225;-78
2022/09/08 13:22:40;;;;;;;8.67;2.47;;;16.50;81.00;;;;;;5056944;28;20183;-75
2022/09/08 13:25:40;;;;;;;9.87;2.40;;;16.50;81.10;;;;;;5068471;28;20181;-75
2022/09/08 13:28:10;;;;;;;15.97;2.73;;;16.50;81.00;;;;;;5053343;28;20193;-78
2022/09/08 13:30:56;;;;;;;12.17;3.10;;;16.50;80.60;;;;;;5055897;28;20255;-79
2022/09/08 13:33:42;;;;;;;18.90;3.80;;;16.50;80.50;;;;;;5060315;28;20218;-80
2022/09/08 13:36:50;;;;;;;18.80;3.53;;;16.50;80.00;;;;;;5053316;28;20264;-75
2022/09/08 13:39:31;;;;;;;20.37;3.40;;;16.60;80.20;;;;;;5069485;28;20272;-74